createdAt,value
2022-10-11T00:00:59.498Z,18.92
2022-10-11T00:03:27.727Z,16.25
2022-10-11T00:05:56.287Z,16.92
2022-10-11T00:08:25.804Z,18.70
2022-10-11T00:11:01.346Z,18.17
2022-10-11T00:13:30.183Z,16.15
2022-10-11T00:15:59.009Z,16.08
2022-10-11T00:18:28.026Z,14.70
2022-10-11T00:21:03.205Z,17.35
2022-10-11T00:23:33.506Z,20.98
2022-10-11T00:26:03.439Z,16.20
2022-10-11T00:28:32.318Z,13.30
2022-10-11T00:31:01.080Z,14.93
2022-10-11T00:33:29.496Z,19.50
2022-10-11T00:36:00.561Z,21.38
2022-10-11T00:38:30.057Z,15.98
2022-10-11T00:41:01.855Z,16.98
2022-10-11T00:43:32.102Z,18.08
2022-10-11T00:46:08.120Z,16.83
2022-10-11T00:48:42.936Z,19.73
2022-10-11T00:51:18.410Z,17.58
2022-10-11T00:53:49.073Z,15.45
2022-10-11T00:56:24.848Z,16.20
2022-10-11T00:58:54.171Z,16.80
2022-10-11T01:01:22.557Z,16.20
2022-10-11T01:03:50.890Z,23.40
2022-10-11T01:06:19.289Z,14.60
2022-10-11T01:08:48.287Z,18.67
2022-10-11T01:11:22.562Z,15.13
2022-10-11T01:14:07.146Z,15.85
2022-10-11T01:16:39.487Z,16.30
2022-10-11T01:19:26.113Z,15.07
2022-10-11T01:22:07.794Z,16.85
2022-10-11T01:25:08.325Z,15.23
2022-10-11T01:27:49.895Z,16.63
2022-10-11T01:30:28.575Z,15.73
2022-10-11T01:33:07.829Z,18.63
2022-10-11T01:35:42.664Z,16.42
2022-10-11T01:38:17.940Z,15.30
2022-10-11T01:40:51.316Z,15.32
2022-10-11T01:43:21.828Z,14.15
2022-10-11T01:45:52.767Z,14.85
2022-10-11T01:48:21.253Z,14.95
2022-10-11T01:50:52.113Z,15.00
2022-10-11T01:53:40.636Z,17.92
2022-10-11T01:56:23.994Z,13.07
2022-10-11T01:59:09.337Z,13.20
2022-10-11T02:01:50.265Z,12.82
2022-10-11T02:04:28.493Z,17.83
2022-10-11T02:07:04.113Z,15.90
2022-10-11T02:09:37.534Z,12.23
2022-10-11T02:12:12.098Z,13.65
2022-10-11T02:14:44.213Z,9.82
2022-10-11T02:17:18.153Z,17.65
2022-10-11T02:19:50.536Z,10.15
2022-10-11T02:22:30.803Z,13.00
2022-10-11T02:25:03.343Z,16.65
2022-10-11T02:27:34.202Z,15.40
2022-10-11T02:30:07.363Z,15.85
2022-10-11T02:32:39.789Z,13.30
2022-10-11T02:35:09.183Z,10.90
2022-10-11T02:37:43.843Z,14.60
2022-10-11T02:40:17.108Z,15.70
2022-10-11T02:42:50.742Z,13.65
2022-10-11T02:45:24.654Z,16.38
2022-10-11T02:47:55.117Z,10.63
2022-10-11T02:50:23.999Z,14.95
2022-10-11T02:52:52.204Z,17.70
2022-10-11T02:55:20.875Z,13.57
2022-10-11T02:57:49.349Z,13.52
2022-10-11T03:00:18.221Z,19.83
2022-10-11T03:02:46.509Z,12.35
2022-10-11T03:05:16.140Z,18.23
2022-10-11T03:07:44.577Z,17.00
2022-10-11T03:10:12.890Z,13.32
2022-10-11T03:12:41.837Z,11.98
2022-10-11T03:15:11.242Z,13.70
2022-10-11T03:17:39.664Z,15.45
2022-10-11T03:20:09.066Z,13.32
2022-10-11T03:22:38.778Z,13.25
2022-10-11T03:25:07.584Z,18.50
2022-10-11T03:27:35.849Z,15.18
2022-10-11T03:30:05.042Z,11.45
2022-10-11T03:32:33.251Z,14.18
2022-10-11T03:35:01.676Z,15.65
2022-10-11T03:37:30.048Z,10.60
2022-10-11T03:39:59.583Z,12.05
2022-10-11T03:42:27.853Z,12.48
2022-10-11T03:44:57.152Z,17.35
2022-10-11T03:47:25.482Z,16.63
2022-10-11T03:49:53.762Z,12.63
2022-10-11T03:52:21.897Z,12.93
2022-10-11T03:54:50.199Z,14.15
2022-10-11T03:57:20.298Z,10.43
2022-10-11T03:59:49.249Z,16.67
2022-10-11T04:02:18.136Z,15.30
2022-10-11T04:04:46.728Z,15.18
2022-10-11T04:07:14.943Z,17.50
2022-10-11T04:09:43.089Z,12.20
2022-10-11T04:12:11.445Z,16.17
2022-10-11T04:14:40.983Z,14.07
2022-10-11T04:17:09.342Z,17.92
2022-10-11T04:19:38.063Z,12.25
2022-10-11T04:22:06.511Z,17.38
2022-10-11T04:24:35.047Z,14.77
2022-10-11T04:27:03.320Z,17.20
2022-10-11T04:29:32.783Z,12.77
2022-10-11T04:32:02.625Z,17.00
2022-10-11T04:34:31.561Z,14.50
2022-10-11T04:36:59.801Z,16.42
2022-10-11T04:39:28.195Z,17.40
2022-10-11T04:41:56.469Z,15.40
2022-10-11T04:44:24.565Z,17.27
2022-10-11T04:46:53.096Z,12.95
2022-10-11T04:49:23.421Z,20.40
2022-10-11T04:51:51.887Z,14.27
2022-10-11T04:54:19.992Z,15.98
2022-10-11T04:56:48.421Z,22.65
2022-10-11T04:59:16.545Z,18.52
2022-10-11T05:01:44.815Z,13.45
2022-10-11T05:04:13.617Z,20.55
2022-10-11T05:06:43.431Z,18.33
2022-10-11T05:09:11.540Z,19.92
2022-10-11T05:11:39.887Z,18.88
2022-10-11T05:14:08.116Z,21.58
2022-10-11T05:16:36.337Z,19.25
2022-10-11T05:19:04.638Z,22.02
2022-10-11T05:21:33.140Z,20.38
2022-10-11T05:24:02.642Z,20.88
2022-10-11T05:26:30.974Z,19.02
2022-10-11T05:28:59.189Z,18.73
2022-10-11T05:31:27.408Z,18.35
2022-10-11T05:33:55.873Z,23.40
2022-10-11T05:36:24.082Z,21.10
2022-10-11T05:38:52.227Z,20.02
2022-10-11T05:41:22.348Z,23.20
2022-10-11T05:43:50.520Z,22.67
2022-10-11T05:46:18.628Z,24.48
2022-10-11T05:48:47.314Z,26.30
2022-10-11T05:51:15.470Z,23.98
2022-10-11T05:53:43.678Z,23.83
2022-10-11T05:56:23.783Z,23.27
2022-10-11T05:58:52.310Z,24.17
2022-10-11T06:01:23.050Z,23.00
2022-10-11T06:03:51.628Z,19.10
2022-10-11T06:06:20.915Z,22.02
2022-10-11T06:08:49.661Z,24.40
2022-10-11T06:11:20.435Z,19.58
2022-10-11T06:13:50.109Z,22.63
2022-10-11T06:16:18.295Z,24.70
2022-10-11T06:18:46.718Z,20.00
2022-10-11T06:21:15.586Z,26.70
2022-10-11T06:23:44.506Z,20.48
2022-10-11T06:26:12.928Z,22.33
2022-10-11T06:28:41.189Z,25.20
2022-10-11T06:31:11.434Z,22.85
2022-10-11T06:33:39.754Z,20.88
2022-10-11T06:36:10.966Z,26.60
2022-10-11T06:38:44.555Z,22.33
2022-10-11T06:41:15.435Z,19.15
2022-10-11T06:43:44.135Z,20.50
2022-10-11T06:46:14.003Z,20.17
2022-10-11T06:48:43.915Z,18.65
2022-10-11T06:51:12.669Z,18.85
2022-10-11T06:53:41.075Z,20.75
2022-10-11T06:56:13.676Z,21.40
2022-10-11T06:58:42.035Z,17.95
2022-10-11T07:01:12.514Z,20.67
2022-10-11T07:03:42.618Z,20.67
2022-10-11T07:06:12.443Z,22.05
2022-10-11T07:08:41.770Z,18.90
2022-10-11T07:11:11.678Z,16.52
2022-10-11T07:13:40.867Z,18.85
2022-10-11T07:16:11.019Z,16.02
2022-10-11T07:18:40.160Z,23.85
2022-10-11T07:21:12.352Z,23.10
2022-10-11T07:23:41.413Z,22.23
2022-10-11T07:26:10.910Z,19.75
2022-10-11T07:28:40.446Z,15.70
2022-10-11T07:31:11.081Z,14.43
2022-10-11T07:33:39.340Z,19.33
2022-10-11T07:36:09.828Z,16.48
2022-10-11T07:38:41.464Z,16.20
2022-10-11T07:41:10.703Z,15.60
2022-10-11T07:43:39.536Z,11.18
2022-10-11T07:46:09.091Z,16.77
2022-10-11T07:48:38.321Z,17.40
2022-10-11T07:51:10.525Z,12.70
2022-10-11T07:53:42.615Z,16.77
2022-10-11T07:56:13.843Z,17.77
2022-10-11T07:58:42.836Z,14.38
2022-10-11T08:01:12.360Z,14.77
2022-10-11T08:03:40.759Z,12.50
2022-10-11T08:06:12.646Z,14.70
2022-10-11T08:08:40.938Z,14.93
2022-10-11T08:11:09.581Z,12.30
2022-10-11T08:13:37.843Z,10.95
2022-10-11T08:16:12.240Z,13.27
2022-10-11T08:18:40.660Z,10.70
2022-10-11T08:21:11.753Z,11.25
2022-10-11T08:23:40.319Z,10.88
2022-10-11T08:26:09.746Z,12.32
2022-10-11T08:28:38.467Z,10.50
2022-10-11T08:31:06.919Z,12.80
2022-10-11T08:33:35.341Z,12.93
2022-10-11T08:36:05.725Z,9.90
2022-10-11T08:38:37.205Z,13.88
2022-10-11T08:41:15.807Z,12.20
2022-10-11T08:43:55.529Z,10.15
2022-10-11T08:46:28.948Z,11.10
2022-10-11T08:51:29.356Z,12.95
2022-10-11T08:54:07.590Z,11.90
2022-10-11T08:56:52.062Z,11.43
2022-10-11T08:59:30.437Z,11.75
2022-10-11T09:02:05.945Z,10.02
2022-10-11T09:04:35.131Z,11.15
2022-10-11T09:07:08.835Z,12.35
2022-10-11T09:10:01.965Z,8.45
2022-10-11T09:12:41.526Z,8.10
2022-10-11T09:15:27.438Z,13.63
2022-10-11T09:18:13.007Z,9.85
2022-10-11T09:20:57.417Z,13.18
2022-10-11T09:23:40.894Z,11.18
2022-10-11T09:26:15.841Z,12.30
2022-10-11T09:29:00.045Z,8.32
2022-10-11T09:31:29.559Z,11.13
2022-10-11T09:34:00.176Z,8.55
2022-10-11T09:36:43.181Z,11.60
2022-10-11T09:39:25.836Z,10.50
2022-10-11T09:42:00.406Z,9.45
2022-10-11T09:44:31.226Z,10.55
2022-10-11T09:46:59.453Z,9.18
2022-10-11T09:49:32.583Z,11.55
2022-10-11T09:52:03.974Z,10.07
2022-10-11T09:54:42.671Z,12.48
2022-10-11T09:57:22.837Z,9.35
2022-10-11T10:00:01.584Z,9.15
2022-10-11T10:02:30.196Z,10.73
2022-10-11T10:05:01.682Z,8.52
2022-10-11T10:07:31.880Z,11.32
2022-10-11T10:10:01.393Z,10.35
2022-10-11T10:12:32.382Z,10.82
2022-10-11T10:15:07.690Z,10.05
2022-10-11T10:17:37.201Z,11.18
2022-10-11T10:20:06.598Z,8.70
2022-10-11T10:22:36.631Z,8.68
2022-10-11T10:25:08.226Z,10.20
2022-10-11T10:27:38.022Z,11.40
2022-10-11T10:30:16.188Z,13.10
2022-10-11T10:32:51.135Z,11.00
2022-10-11T10:35:30.414Z,11.68
2022-10-11T10:38:07.975Z,8.95
2022-10-11T10:40:44.199Z,7.88
2022-10-11T10:43:20.546Z,12.77
2022-10-11T10:46:25.518Z,10.65
2022-10-11T10:52:03.332Z,9.18
2022-10-11T10:54:43.871Z,8.65
2022-10-11T10:57:17.919Z,8.75
2022-10-11T11:00:07.386Z,8.27
2022-10-11T11:02:44.072Z,11.43
2022-10-11T11:05:24.518Z,9.63
2022-10-11T11:07:57.707Z,11.93
2022-10-11T11:10:34.883Z,8.18
2022-10-11T11:13:19.425Z,8.25
2022-10-11T11:15:57.082Z,11.02
2022-10-11T11:18:33.750Z,9.20
2022-10-11T11:21:14.399Z,11.55
2022-10-11T11:23:47.804Z,11.98
2022-10-11T11:26:21.526Z,8.13
2022-10-11T11:29:00.529Z,9.32
2022-10-11T11:31:44.258Z,9.52
2022-10-11T11:36:49.010Z,10.60
2022-10-11T11:39:20.260Z,10.95
2022-10-11T11:41:53.382Z,8.90
2022-10-11T11:44:27.731Z,11.82
2022-10-11T11:47:02.521Z,17.33
2022-10-11T11:49:36.891Z,19.05
2022-10-11T11:52:06.779Z,11.63
2022-10-11T11:54:45.717Z,61.70
2022-10-11T11:57:24.510Z,106.03
2022-10-11T11:59:58.325Z,22.35
2022-10-11T12:02:40.279Z,8.43
2022-10-11T12:05:10.276Z,13.40
2022-10-11T12:07:51.399Z,12.73
2022-10-11T12:10:37.198Z,11.15
2022-10-11T12:13:16.782Z,10.57
2022-10-11T12:16:00.877Z,10.52
2022-10-11T12:18:31.840Z,9.05
2022-10-11T12:21:06.448Z,7.25
2022-10-11T12:23:47.647Z,8.68
2022-10-11T12:26:44.076Z,6.25
2022-10-11T12:29:44.717Z,7.57
2022-10-11T12:32:49.438Z,8.55
2022-10-11T12:35:51.943Z,9.40
2022-10-11T12:38:23.215Z,8.57
2022-10-11T12:40:54.248Z,9.48
2022-10-11T12:43:45.587Z,8.48
2022-10-11T12:46:43.648Z,9.55
2022-10-11T12:49:32.926Z,9.45
2022-10-11T12:52:04.781Z,10.35
2022-10-11T12:55:04.599Z,10.95
2022-10-11T12:58:09.884Z,12.35
2022-10-11T13:00:45.794Z,9.63
2022-10-11T13:03:32.277Z,10.55
2022-10-11T13:06:11.023Z,9.05
2022-10-11T13:08:44.441Z,9.68
2022-10-11T13:11:19.796Z,8.55
2022-10-11T13:13:53.631Z,10.57
2022-10-11T13:16:24.141Z,7.50
2022-10-11T13:18:57.400Z,7.63
2022-10-11T13:21:32.645Z,8.63
2022-10-11T13:24:05.448Z,7.68
2022-10-11T13:26:34.350Z,10.63
2022-10-11T13:29:02.740Z,9.60
2022-10-11T13:31:30.930Z,9.30
2022-10-11T13:34:00.333Z,8.18
2022-10-11T13:36:29.107Z,15.35
2022-10-11T13:38:59.123Z,10.32
2022-10-11T13:41:30.931Z,8.15
2022-10-11T13:44:00.929Z,8.73
2022-10-11T13:46:31.345Z,11.32
2022-10-11T13:49:01.322Z,13.27
2022-10-11T13:51:33.544Z,10.77
2022-10-11T13:54:04.353Z,9.60
2022-10-11T13:56:37.967Z,7.78
2022-10-11T14:01:40.937Z,7.22
2022-10-11T14:04:11.877Z,8.30
2022-10-11T14:06:43.172Z,10.65
2022-10-11T14:09:20.754Z,8.27
2022-10-11T14:11:51.321Z,7.90
2022-10-11T14:14:42.057Z,8.63
2022-10-11T14:17:17.331Z,10.70
2022-10-11T14:19:46.928Z,10.00
2022-10-11T14:22:17.096Z,8.13
2022-10-11T14:24:49.011Z,8.85
2022-10-11T14:27:22.304Z,9.80
2022-10-11T14:30:12.965Z,7.82
2022-10-11T14:32:39.835Z,9.80
2022-10-11T14:35:11.857Z,8.40
2022-10-11T14:37:40.140Z,7.93
2022-10-11T14:40:20.127Z,7.78
2022-10-11T14:42:50.314Z,9.88
2022-10-11T14:45:21.355Z,8.13
2022-10-11T14:47:49.931Z,7.30
2022-10-11T14:50:34.875Z,7.35
2022-10-11T14:53:04.135Z,11.68
2022-10-11T14:55:32.994Z,8.32
2022-10-11T14:58:02.876Z,12.82
2022-10-11T15:00:33.039Z,9.32
2022-10-11T15:03:01.305Z,7.57
2022-10-11T15:05:34.112Z,12.13
2022-10-11T15:08:02.724Z,8.40
2022-10-11T15:10:35.082Z,9.88
2022-10-11T15:13:07.038Z,9.88
2022-10-11T15:15:37.848Z,10.90
2022-10-11T15:18:08.246Z,8.52
2022-10-11T15:20:38.582Z,7.97
2022-10-11T15:23:09.587Z,11.00
2022-10-11T15:25:38.764Z,10.73
2022-10-11T15:28:25.412Z,7.40
2022-10-11T15:30:53.686Z,8.20
2022-10-11T15:33:21.983Z,9.35
2022-10-11T15:35:50.429Z,9.40
2022-10-11T15:38:21.385Z,6.43
2022-10-11T15:40:50.526Z,6.88
2022-10-11T15:43:24.706Z,12.20
2022-10-11T15:45:53.899Z,8.55
2022-10-11T15:48:23.986Z,8.65
2022-10-11T15:50:52.478Z,9.02
2022-10-11T15:53:23.466Z,12.20
2022-10-11T15:55:53.427Z,11.18
2022-10-11T15:58:26.294Z,12.20
2022-10-11T16:00:56.945Z,11.10
2022-10-11T16:03:28.671Z,9.02
2022-10-11T16:06:03.826Z,10.45
2022-10-11T16:08:33.558Z,8.07
2022-10-11T16:11:02.132Z,9.45
2022-10-11T16:13:31.923Z,7.85
2022-10-11T16:16:02.099Z,7.95
2022-10-11T16:18:35.104Z,12.10
2022-10-11T16:23:35.972Z,8.40
2022-10-11T16:26:06.525Z,8.85
2022-10-11T16:28:38.016Z,9.68
2022-10-11T16:31:08.305Z,5.95
2022-10-11T16:33:45.738Z,9.57
2022-10-11T16:36:35.666Z,8.27
2022-10-11T16:39:07.668Z,6.95
2022-10-11T16:41:36.139Z,6.35
2022-10-11T16:44:08.671Z,6.72
2022-10-11T16:46:37.140Z,7.70
2022-10-11T16:49:05.809Z,8.57
2022-10-11T16:51:34.386Z,9.55
2022-10-11T16:54:03.032Z,13.15
2022-10-11T16:56:33.937Z,11.75
2022-10-11T16:59:05.960Z,14.13
2022-10-11T17:01:34.189Z,17.77
2022-10-11T17:04:02.253Z,13.98
2022-10-11T17:06:31.152Z,15.15
2022-10-11T17:08:59.638Z,10.57
2022-10-11T17:11:28.043Z,8.70
2022-10-11T17:13:56.635Z,10.35
2022-10-11T17:16:26.222Z,10.85
2022-10-11T17:18:54.319Z,11.23
2022-10-11T17:21:23.600Z,9.73
2022-10-11T17:23:51.813Z,11.88
2022-10-11T17:26:21.877Z,15.18
2022-10-11T17:28:50.586Z,16.10
2022-10-11T17:31:18.860Z,12.63
2022-10-11T17:33:48.801Z,13.90
2022-10-11T17:36:20.973Z,14.55
2022-10-11T17:38:49.747Z,10.95
2022-10-11T17:41:18.861Z,11.90
2022-10-11T17:43:47.249Z,16.08
2022-10-11T17:46:17.263Z,20.58
2022-10-11T17:48:45.898Z,20.52
2022-10-11T17:51:17.050Z,20.83
2022-10-11T17:53:45.791Z,34.10
2022-10-11T17:56:16.006Z,33.72
2022-10-11T17:58:45.322Z,24.30
2022-10-11T18:01:15.484Z,19.17
2022-10-11T18:03:44.826Z,14.73
2022-10-11T18:06:15.846Z,17.15
2022-10-11T18:08:44.177Z,28.73
2022-10-11T18:11:14.277Z,52.30
2022-10-11T18:13:46.404Z,45.17
2022-10-11T18:16:15.654Z,27.90
2022-10-11T18:18:44.732Z,27.52
2022-10-11T18:21:13.613Z,29.30
2022-10-11T18:23:43.643Z,45.05
2022-10-11T18:26:13.174Z,49.88
2022-10-11T18:28:42.318Z,42.13
2022-10-11T18:31:14.082Z,35.70
2022-10-11T18:33:43.487Z,33.65
2022-10-11T18:36:13.584Z,30.65
2022-10-11T18:38:46.799Z,33.78
2022-10-11T18:41:17.138Z,26.25
2022-10-11T18:43:50.443Z,23.85
2022-10-11T18:46:19.223Z,20.45
2022-10-11T18:48:49.258Z,20.35
2022-10-11T18:51:19.946Z,21.27
2022-10-11T18:53:50.444Z,19.42
2022-10-11T18:56:21.964Z,20.52
2022-10-11T18:58:51.422Z,27.20
2022-10-11T19:01:22.552Z,25.65
2022-10-11T19:03:52.795Z,19.02
2022-10-11T19:06:23.001Z,19.80
2022-10-11T19:08:56.232Z,19.70
2022-10-11T19:11:25.502Z,13.18
2022-10-11T19:13:57.495Z,16.05
2022-10-11T19:16:26.857Z,14.95
2022-10-11T19:18:55.410Z,14.82
2022-10-11T19:21:23.712Z,12.90
2022-10-11T19:23:54.058Z,15.20
2022-10-11T19:26:28.935Z,13.00
2022-10-11T19:28:58.857Z,11.02
2022-10-11T19:31:27.808Z,14.75
2022-10-11T19:33:57.282Z,14.05
2022-10-11T19:36:25.738Z,15.20
2022-10-11T19:38:56.776Z,16.23
2022-10-11T19:41:27.648Z,13.35
2022-10-11T19:43:58.098Z,8.77
2022-10-11T19:46:49.932Z,13.55
2022-10-11T19:49:20.377Z,10.13
2022-10-11T19:51:48.675Z,14.17
2022-10-11T19:54:18.621Z,11.05
2022-10-11T19:56:46.972Z,12.25
2022-10-11T19:59:15.636Z,8.70
2022-10-11T20:01:48.113Z,9.98
2022-10-11T20:07:09.442Z,12.73
2022-10-11T20:09:39.399Z,11.40
2022-10-11T20:12:08.076Z,13.18
2022-10-11T20:14:36.543Z,13.80
2022-10-11T20:17:05.008Z,11.75
2022-10-11T20:19:33.161Z,11.95
2022-10-11T20:22:01.988Z,13.32
2022-10-11T20:24:33.643Z,13.05
2022-10-11T20:27:04.887Z,16.10
2022-10-11T20:29:33.758Z,12.98
2022-10-11T20:32:01.915Z,9.18
2022-10-11T20:34:30.667Z,12.65
2022-10-11T20:36:59.691Z,12.88
2022-10-11T20:39:28.052Z,12.82
2022-10-11T20:41:56.221Z,11.70
2022-10-11T20:44:26.043Z,12.77
2022-10-11T20:46:54.209Z,16.95
2022-10-11T20:49:22.635Z,15.98
2022-10-11T20:51:51.351Z,14.50
2022-10-11T20:54:19.592Z,13.85
2022-10-11T20:56:47.886Z,15.30
2022-10-11T20:59:16.267Z,14.48
2022-10-11T21:01:45.910Z,14.85
2022-10-11T21:04:19.196Z,12.25
2022-10-11T21:06:48.165Z,15.90
2022-10-11T21:09:17.176Z,13.45
2022-10-11T21:11:46.212Z,10.57
2022-10-11T21:14:14.473Z,11.57
2022-10-11T21:16:43.130Z,10.43
2022-10-11T21:19:16.363Z,12.85
2022-10-11T21:21:49.705Z,11.07
2022-10-11T21:24:22.125Z,14.10
2022-10-11T21:26:50.460Z,12.52
2022-10-11T21:29:19.164Z,10.85
2022-10-11T21:31:47.506Z,13.07
2022-10-11T21:34:17.250Z,10.30
2022-10-11T21:36:45.511Z,11.00
2022-10-11T21:39:13.703Z,14.77
2022-10-11T21:41:42.923Z,13.38
2022-10-11T21:44:11.443Z,12.48
2022-10-11T21:47:05.487Z,12.52
2022-10-11T21:49:29.405Z,11.88
2022-10-11T21:51:58.229Z,16.35
2022-10-11T21:54:26.736Z,15.50
2022-10-11T21:56:55.242Z,14.48
2022-10-11T21:59:23.438Z,10.00
2022-10-11T22:01:51.748Z,10.57
2022-10-11T22:04:20.364Z,13.95
2022-10-11T22:06:50.001Z,17.88
2022-10-11T22:09:18.192Z,13.68
2022-10-11T22:11:46.586Z,13.23
2022-10-11T22:14:15.092Z,10.90
2022-10-11T22:16:43.345Z,12.25
2022-10-11T22:19:11.874Z,14.45
2022-10-11T22:21:44.942Z,14.70
2022-10-11T22:24:15.025Z,14.32
2022-10-11T22:26:43.547Z,10.57
2022-10-11T22:29:11.741Z,14.70
2022-10-11T22:31:40.109Z,11.77
2022-10-11T22:34:08.484Z,13.15
2022-10-11T22:36:36.780Z,17.70
2022-10-11T22:39:08.104Z,14.20
2022-10-11T22:41:38.573Z,13.63
2022-10-11T22:44:07.266Z,11.27
2022-10-11T22:46:35.419Z,12.63
2022-10-11T22:49:03.864Z,13.23
2022-10-11T22:51:32.152Z,15.38
2022-10-11T22:54:00.261Z,11.25
2022-10-11T22:56:28.830Z,13.27
2022-10-11T22:58:59.844Z,17.10
2022-10-11T23:01:28.056Z,19.30
2022-10-11T23:03:56.784Z,16.27
2022-10-11T23:06:25.195Z,15.18
2022-10-11T23:08:53.393Z,12.30
2022-10-11T23:11:21.643Z,11.82
2022-10-11T23:13:50.011Z,15.07
2022-10-11T23:16:19.575Z,15.43
2022-10-11T23:18:47.852Z,19.15
2022-10-11T23:21:16.144Z,15.82
2022-10-11T23:23:44.345Z,16.50
2022-10-11T23:26:15.494Z,13.77
2022-10-11T23:28:45.013Z,17.55
2022-10-11T23:31:15.171Z,16.58
2022-10-11T23:33:45.472Z,15.35
2022-10-11T23:36:16.051Z,16.17
2022-10-11T23:38:44.380Z,12.50
2022-10-11T23:41:13.028Z,15.38
2022-10-11T23:43:41.084Z,16.77
2022-10-11T23:46:09.146Z,18.88
2022-10-11T23:48:37.720Z,18.23
2022-10-11T23:51:07.586Z,14.15
2022-10-11T23:53:36.127Z,13.18
2022-10-11T23:56:05.055Z,16.67
2022-10-11T23:58:33.375Z,17.67
